Time;durP1;ratioP1;P1;durP2;ratioP2;P2;SDS_P1;SDS_P2;PMS_P1;PMS_P2;Temp;Humidity;BMP_temperature;BMP_pressure;BME280_temperature;BME280_humidity;BME280_pressure;Samples;Min_cycle;Max_cycle;Signal;HPM_P1;HPM_P2
2021/01/08 00:02:39;;;;;;;15.68;8.13;;;;;;;;;;5032904;28;20091;-77
2021/01/08 00:05:24;;;;;;;15.38;9.27;;;;;;;;;;5029622;28;20025;-77
2021/01/08 00:08:09;;;;;;;15.65;10.27;;;;;;;;;;5036989;28;20030;-77
2021/01/08 00:10:54;;;;;;;16.92;8.48;;;;;;;;;;5040442;28;20116;-77
2021/01/08 00:13:39;;;;;;;15.35;8.82;;;;;;;;;;5040870;28;20013;-77
2021/01/08 00:16:25;;;;;;;13.57;8.23;;;;;;;;;;5035117;28;20017;-78
2021/01/08 00:19:13;;;;;;;15.88;9.65;;;;;;;;;;5027787;28;20243;-78
2021/01/08 00:21:58;;;;;;;14.48;9.07;;;;;;;;;;5030972;28;20097;-75
2021/01/08 00:24:43;;;;;;;13.43;7.97;;;;;;;;;;5034930;28;20021;-76
2021/01/08 00:27:28;;;;;;;16.58;9.57;;;;;;;;;;5032385;28;20487;-76
2021/01/08 00:30:14;;;;;;;13.88;8.75;;;;;;;;;;5036237;28;20108;-75
2021/01/08 00:32:59;;;;;;;15.48;9.43;;;;;;;;;;5032016;28;20036;-75
2021/01/08 00:35:44;;;;;;;15.48;8.50;;;;;;;;;;5037117;28;20033;-76
2021/01/08 00:38:29;;;;;;;13.82;8.65;;;;;;;;;;5036905;28;20060;-76
2021/01/08 00:41:15;;;;;;;15.13;9.52;;;;;;;;;;5039804;28;20032;-76
2021/01/08 00:44:03;;;;;;;14.27;9.10;;;;;;;;;;5028487;28;20025;-76
2021/01/08 00:46:50;;;;;;;13.57;8.93;;;;;;;;;;5037142;28;20112;-77
2021/01/08 00:49:35;;;;;;;12.55;7.72;;;;;;;;;;5030163;28;20116;-76
2021/01/08 00:52:20;;;;;;;14.15;8.38;;;;;;;;;;5036833;28;20052;-77
2021/01/08 00:55:06;;;;;;;14.85;8.60;;;;;;;;;;5037710;28;20027;-77
2021/01/08 00:57:51;;;;;;;14.63;9.05;;;;;;;;;;5037770;28;20124;-77
2021/01/08 01:00:36;;;;;;;12.85;7.78;;;;;;;;;;5033687;28;20041;-77
2021/01/08 01:03:21;;;;;;;13.40;7.82;;;;;;;;;;5034159;28;20384;-77
2021/01/08 01:06:07;;;;;;;14.25;8.63;;;;;;;;;;5034644;28;20063;-77
2021/01/08 01:08:56;;;;;;;12.60;7.75;;;;;;;;;;5037198;28;20040;-77
2021/01/08 01:11:41;;;;;;;13.43;7.50;;;;;;;;;;5042453;28;20029;-77
2021/01/08 01:14:26;;;;;;;13.45;7.10;;;;;;;;;;5045937;28;20021;-77
2021/01/08 01:17:11;;;;;;;12.13;8.23;;;;;;;;;;5035832;28;20117;-77
2021/01/08 01:19:57;;;;;;;15.02;8.45;;;;;;;;;;5039565;28;20029;-77
2021/01/08 01:22:42;;;;;;;13.40;8.45;;;;;;;;;;5039190;28;20017;-77
2021/01/08 01:25:27;;;;;;;14.45;8.85;;;;;;;;;;5039682;28;20048;-77
2021/01/08 01:28:12;;;;;;;12.98;7.13;;;;;;;;;;5039143;28;20029;-77
2021/01/08 01:30:58;;;;;;;11.55;6.93;;;;;;;;;;5034899;28;20021;-77
2021/01/08 01:33:43;;;;;;;16.58;9.55;;;;;;;;;;5037056;28;20013;-77
2021/01/08 01:36:28;;;;;;;14.05;8.02;;;;;;;;;;5033908;28;20025;-76
2021/01/08 01:39:13;;;;;;;11.60;7.03;;;;;;;;;;5040161;28;20035;-76
2021/01/08 01:41:59;;;;;;;13.15;8.43;;;;;;;;;;5043206;28;20021;-76
2021/01/08 01:44:44;;;;;;;12.52;7.05;;;;;;;;;;5038293;28;20449;-76
2021/01/08 01:47:29;;;;;;;12.05;8.07;;;;;;;;;;5038935;28;20379;-76
2021/01/08 01:50:15;;;;;;;10.07;6.28;;;;;;;;;;5038414;28;20033;-76
2021/01/08 01:53:00;;;;;;;11.65;6.45;;;;;;;;;;5034222;28;20036;-77
2021/01/08 01:55:46;;;;;;;11.05;7.00;;;;;;;;;;5036622;28;20044;-77
2021/01/08 01:58:31;;;;;;;11.23;6.95;;;;;;;;;;5035384;28;20100;-77
2021/01/08 02:01:17;;;;;;;10.85;6.18;;;;;;;;;;5034417;28;20029;-76
2021/01/08 02:04:02;;;;;;;10.48;6.35;;;;;;;;;;5035660;28;20063;-76
2021/01/08 02:06:48;;;;;;;11.00;6.30;;;;;;;;;;5032448;28;20056;-76
2021/01/08 02:09:33;;;;;;;11.32;6.68;;;;;;;;;;5036900;28;20082;-76
2021/01/08 02:12:19;;;;;;;12.55;7.05;;;;;;;;;;5029544;28;20028;-76
2021/01/08 02:15:05;;;;;;;12.40;6.97;;;;;;;;;;5039361;28;20387;-77
2021/01/08 02:17:50;;;;;;;9.80;6.32;;;;;;;;;;5034800;28;20049;-76
2021/01/08 02:20:35;;;;;;;11.02;6.57;;;;;;;;;;5034108;28;20030;-78
2021/01/08 02:23:24;;;;;;;10.90;7.00;;;;;;;;;;5032934;28;20167;-78
2021/01/08 02:26:09;;;;;;;10.10;6.25;;;;;;;;;;5038006;28;20075;-77
2021/01/08 02:28:55;;;;;;;12.80;6.97;;;;;;;;;;5034629;28;20025;-77
2021/01/08 02:31:40;;;;;;;11.68;6.53;;;;;;;;;;5032983;28;20108;-78
2021/01/08 02:34:26;;;;;;;11.00;6.38;;;;;;;;;;5037065;28;20028;-76
2021/01/08 02:37:11;;;;;;;9.00;5.65;;;;;;;;;;5032829;28;20026;-75
2021/01/08 02:39:57;;;;;;;12.45;7.05;;;;;;;;;;5033077;28;20028;-78
2021/01/08 02:42:43;;;;;;;11.48;7.07;;;;;;;;;;5034611;28;20037;-78
2021/01/08 02:45:29;;;;;;;12.13;7.28;;;;;;;;;;5032676;28;20156;-78
2021/01/08 02:48:14;;;;;;;11.32;6.68;;;;;;;;;;5042337;28;20017;-78
2021/01/08 02:51:00;;;;;;;11.68;6.60;;;;;;;;;;5035382;28;20112;-77
2021/01/08 02:53:45;;;;;;;11.45;6.28;;;;;;;;;;5035566;28;20724;-78
2021/01/08 02:56:38;;;;;;;11.40;6.25;;;;;;;;;;5034441;28;20041;-79
2021/01/08 02:59:25;;;;;;;9.75;6.15;;;;;;;;;;5028796;28;20025;-78
2021/01/08 03:02:10;;;;;;;12.80;7.13;;;;;;;;;;5033049;28;20029;-77
2021/01/08 03:04:56;;;;;;;12.45;7.25;;;;;;;;;;5032896;28;20407;-76
2021/01/08 03:07:41;;;;;;;14.50;8.20;;;;;;;;;;5038875;28;20062;-76
2021/01/08 03:10:26;;;;;;;12.25;6.85;;;;;;;;;;5032521;28;20029;-76
2021/01/08 03:13:13;;;;;;;11.05;6.47;;;;;;;;;;5033331;28;20036;-76
2021/01/08 03:15:58;;;;;;;12.23;6.68;;;;;;;;;;5053233;28;20025;-77
2021/01/08 03:18:44;;;;;;;10.75;5.78;;;;;;;;;;5034423;28;20026;-76
2021/01/08 03:21:32;;;;;;;10.55;5.78;;;;;;;;;;5035695;28;20036;-76
2021/01/08 03:24:17;;;;;;;10.90;6.43;;;;;;;;;;5032026;28;20076;-76
2021/01/08 03:27:03;;;;;;;10.65;6.22;;;;;;;;;;5031322;28;20045;-76
2021/01/08 03:29:48;;;;;;;12.23;7.00;;;;;;;;;;5033659;28;20041;-77
2021/01/08 03:32:34;;;;;;;12.13;6.78;;;;;;;;;;5034986;28;20022;-76
2021/01/08 03:35:19;;;;;;;10.27;6.40;;;;;;;;;;5038687;28;20379;-77
2021/01/08 03:38:04;;;;;;;10.70;6.40;;;;;;;;;;5034846;28;20024;-76
2021/01/08 03:40:49;;;;;;;11.25;6.35;;;;;;;;;;5033091;28;20036;-76
2021/01/08 03:43:35;;;;;;;11.40;6.28;;;;;;;;;;5030451;28;20037;-76
2021/01/08 03:46:20;;;;;;;12.35;6.35;;;;;;;;;;5033353;28;20364;-77
2021/01/08 03:49:05;;;;;;;12.52;7.43;;;;;;;;;;5039493;28;20543;-76
2021/01/08 03:51:51;;;;;;;12.32;5.55;;;;;;;;;;5035424;28;20612;-76
2021/01/08 03:54:36;;;;;;;10.82;6.20;;;;;;;;;;5031346;28;20480;-76
2021/01/08 03:57:21;;;;;;;12.20;6.38;;;;;;;;;;5034382;28;20056;-76
2021/01/08 04:00:07;;;;;;;10.15;5.63;;;;;;;;;;5036324;28;20035;-76
2021/01/08 04:02:52;;;;;;;10.93;6.13;;;;;;;;;;5028830;28;20551;-77
2021/01/08 04:05:37;;;;;;;11.48;6.90;;;;;;;;;;5035577;28;20040;-76
2021/01/08 04:08:22;;;;;;;10.73;6.47;;;;;;;;;;5034143;28;20057;-77
2021/01/08 04:11:07;;;;;;;10.68;5.97;;;;;;;;;;5038516;28;20018;-77
2021/01/08 04:13:53;;;;;;;10.80;6.07;;;;;;;;;;5035370;28;20025;-76
2021/01/08 04:16:41;;;;;;;13.27;6.63;;;;;;;;;;5027484;28;20422;-76
2021/01/08 04:19:26;;;;;;;11.75;6.90;;;;;;;;;;5036682;28;20383;-76
2021/01/08 04:22:11;;;;;;;11.48;6.30;;;;;;;;;;5031912;28;20527;-76
2021/01/08 04:24:56;;;;;;;11.90;7.18;;;;;;;;;;5036152;28;20705;-76
2021/01/08 04:27:41;;;;;;;13.27;7.47;;;;;;;;;;5030332;28;20030;-77
2021/01/08 04:30:26;;;;;;;13.18;7.32;;;;;;;;;;5043972;28;20025;-77
2021/01/08 04:33:11;;;;;;;12.93;7.65;;;;;;;;;;5037520;28;20024;-77
2021/01/08 04:35:57;;;;;;;15.23;8.50;;;;;;;;;;5033253;28;20491;-77
2021/01/08 04:38:42;;;;;;;13.40;7.15;;;;;;;;;;5036606;28;21500;-77
2021/01/08 04:41:28;;;;;;;11.43;6.63;;;;;;;;;;5039544;28;20414;-77
2021/01/08 04:44:14;;;;;;;13.90;6.80;;;;;;;;;;5033838;28;20055;-77
2021/01/08 04:47:00;;;;;;;13.63;6.53;;;;;;;;;;5035805;28;20031;-77
2021/01/08 04:49:46;;;;;;;12.85;7.00;;;;;;;;;;5036578;28;20029;-77
2021/01/08 04:52:35;;;;;;;14.00;8.07;;;;;;;;;;5047558;28;20112;-77
2021/01/08 04:55:21;;;;;;;12.93;6.25;;;;;;;;;;5038770;28;20494;-77
2021/01/08 04:58:07;;;;;;;15.25;7.60;;;;;;;;;;5037070;28;20051;-77
2021/01/08 05:00:53;;;;;;;13.60;7.47;;;;;;;;;;5041672;28;20037;-77
2021/01/08 05:03:38;;;;;;;9.70;6.35;;;;;;;;;;5037759;28;20082;-77
2021/01/08 05:06:23;;;;;;;12.10;7.20;;;;;;;;;;5033874;28;20087;-77
2021/01/08 05:09:08;;;;;;;12.77;6.88;;;;;;;;;;5037827;28;20056;-77
2021/01/08 05:11:54;;;;;;;11.88;7.32;;;;;;;;;;5034497;28;20254;-76
2021/01/08 05:14:40;;;;;;;12.82;7.38;;;;;;;;;;5032698;28;20017;-76
2021/01/08 05:17:29;;;;;;;13.75;7.13;;;;;;;;;;5047151;28;20096;-77
2021/01/08 05:20:14;;;;;;;10.98;6.13;;;;;;;;;;5038183;28;20586;-76
2021/01/08 05:22:59;;;;;;;11.57;7.13;;;;;;;;;;5045011;28;20040;-78
2021/01/08 05:25:45;;;;;;;10.65;5.90;;;;;;;;;;5032489;28;20088;-79
2021/01/08 05:28:31;;;;;;;11.50;7.43;;;;;;;;;;5035387;28;20033;-76
2021/01/08 05:31:17;;;;;;;13.52;6.95;;;;;;;;;;5033197;28;20715;-76
2021/01/08 05:34:02;;;;;;;12.88;7.32;;;;;;;;;;5035701;28;20040;-76
2021/01/08 05:36:48;;;;;;;10.23;6.53;;;;;;;;;;5037019;28;20468;-78
2021/01/08 05:39:34;;;;;;;12.70;7.53;;;;;;;;;;5037205;28;20554;-78
2021/01/08 05:42:19;;;;;;;13.23;6.60;;;;;;;;;;5036175;28;20029;-78
2021/01/08 05:45:06;;;;;;;10.77;6.07;;;;;;;;;;5033420;28;20050;-78
2021/01/08 05:47:52;;;;;;;12.65;6.93;;;;;;;;;;5042635;28;20024;-78
2021/01/08 05:50:38;;;;;;;11.18;6.43;;;;;;;;;;5037131;28;20033;-78
2021/01/08 05:53:23;;;;;;;12.40;7.07;;;;;;;;;;5037636;28;20024;-78
2021/01/08 05:56:19;;;;;;;9.80;5.95;;;;;;;;;;5033227;28;20384;-78
2021/01/08 05:59:07;;;;;;;10.73;6.60;;;;;;;;;;5036595;28;20045;-77
2021/01/08 06:01:55;;;;;;;12.38;6.90;;;;;;;;;;5033155;28;20034;-76
2021/01/08 06:04:41;;;;;;;11.57;6.32;;;;;;;;;;5034130;28;20115;-76
2021/01/08 06:07:34;;;;;;;9.30;5.45;;;;;;;;;;5033375;28;20388;-77
2021/01/08 06:10:23;;;;;;;11.80;6.15;;;;;;;;;;5040845;28;20021;-76
2021/01/08 06:13:08;;;;;;;9.48;5.63;;;;;;;;;;5039708;28;20353;-77
2021/01/08 06:15:55;;;;;;;10.32;5.85;;;;;;;;;;5036107;28;20128;-77
2021/01/08 06:18:40;;;;;;;12.32;6.47;;;;;;;;;;5034149;28;20087;-77
2021/01/08 06:21:35;;;;;;;12.85;6.55;;;;;;;;;;5033816;28;20036;-77
2021/01/08 06:24:25;;;;;;;9.63;5.70;;;;;;;;;;5037129;28;20487;-76
2021/01/08 06:27:10;;;;;;;9.68;6.03;;;;;;;;;;5037285;28;20033;-76
2021/01/08 06:30:00;;;;;;;11.75;5.80;;;;;;;;;;5032105;28;20115;-77
2021/01/08 06:32:45;;;;;;;;;;;;;;;;;;5039698;28;20028;-76
2021/01/08 06:35:32;;;;;;;11.35;6.50;;;;;;;;;;5031101;28;20422;-77
2021/01/08 06:38:20;;;;;;;10.50;6.28;;;;;;;;;;5032311;28;20029;-76
2021/01/08 06:41:09;;;;;;;9.90;6.18;;;;;;;;;;5032935;28;20710;-76
2021/01/08 06:43:59;;;;;;;11.45;5.68;;;;;;;;;;5038097;28;20033;-76
2021/01/08 06:46:44;;;;;;;9.57;5.55;;;;;;;;;;5040800;28;20036;-76
2021/01/08 06:49:31;;;;;;;12.20;5.90;;;;;;;;;;5040591;28;20605;-77
2021/01/08 06:52:16;;;;;;;9.98;6.20;;;;;;;;;;5033765;28;20030;-76
2021/01/08 06:55:04;;;;;;;12.43;6.68;;;;;;;;;;5032560;28;20063;-78
2021/01/08 06:57:52;;;;;;;11.50;6.47;;;;;;;;;;5029139;28;20817;-77
2021/01/08 07:00:40;;;;;;;9.10;4.85;;;;;;;;;;5035044;28;20375;-77
2021/01/08 07:03:25;;;;;;;10.40;5.78;;;;;;;;;;5032481;28;20632;-77
2021/01/08 07:06:10;;;;;;;9.07;5.47;;;;;;;;;;5029215;28;20435;-77
2021/01/08 07:08:56;;;;;;;8.88;5.18;;;;;;;;;;5031768;28;20025;-77
2021/01/08 07:11:41;;;;;;;9.38;5.18;;;;;;;;;;5039208;28;20400;-76
2021/01/08 07:14:26;;;;;;;9.07;5.43;;;;;;;;;;5038698;28;20044;-77
2021/01/08 07:17:15;;;;;;;11.77;5.65;;;;;;;;;;5035188;28;20391;-77
2021/01/08 07:20:01;;;;;;;10.43;5.65;;;;;;;;;;5033222;28;20037;-77
2021/01/08 07:22:50;;;;;;;10.00;6.00;;;;;;;;;;5038607;28;20426;-77
2021/01/08 07:25:39;;;;;;;12.65;5.60;;;;;;;;;;5038530;28;20027;-77
2021/01/08 07:28:24;;;;;;;54.88;38.28;;;;;;;;;;5036062;28;21728;-77
2021/01/08 07:31:10;;;;;;;12.10;6.13;;;;;;;;;;5039957;28;20139;-77
2021/01/08 07:33:56;;;;;;;8.90;5.75;;;;;;;;;;5038930;28;20383;-77
2021/01/08 07:36:41;;;;;;;10.93;6.13;;;;;;;;;;5034141;28;20392;-77
2021/01/08 07:39:37;;;;;;;7.72;4.82;;;;;;;;;;5027865;28;20040;-77
2021/01/08 07:42:34;;;;;;;11.30;6.15;;;;;;;;;;5035307;28;20090;-78
2021/01/08 07:45:19;;;;;;;10.32;6.22;;;;;;;;;;5030134;28;20491;-77
2021/01/08 07:48:14;;;;;;;10.07;5.75;;;;;;;;;;5032637;28;20021;-77
2021/01/08 07:51:10;;;;;;;9.05;5.30;;;;;;;;;;5035703;28;20361;-76
2021/01/08 07:53:55;;;;;;;8.38;4.90;;;;;;;;;;5036724;28;20538;-78
2021/01/08 07:57:00;;;;;;;10.90;5.70;;;;;;;;;;5033510;28;20088;-77
2021/01/08 07:59:45;;;;;;;24.52;14.73;;;;;;;;;;5047055;28;20029;-78
2021/01/08 08:02:34;;;;;;;9.32;4.60;;;;;;;;;;5038785;28;20021;-77
2021/01/08 08:05:19;;;;;;;8.98;5.25;;;;;;;;;;5040809;28;20051;-76
2021/01/08 08:08:06;;;;;;;8.63;4.30;;;;;;;;;;5035935;28;20026;-76
2021/01/08 08:10:51;;;;;;;9.25;5.53;;;;;;;;;;5045844;28;20043;-78
2021/01/08 08:13:36;;;;;;;9.80;5.82;;;;;;;;;;5034237;28;20025;-77
2021/01/08 08:16:32;;;;;;;9.15;5.18;;;;;;;;;;5038199;28;20021;-76
2021/01/08 08:19:17;;;;;;;8.10;4.65;;;;;;;;;;5048628;28;20037;-76
2021/01/08 08:22:02;;;;;;;8.77;4.90;;;;;;;;;;5051900;28;20112;-78
2021/01/08 08:24:47;;;;;;;8.40;4.50;;;;;;;;;;5038395;28;20156;-79
2021/01/08 08:27:33;;;;;;;9.35;4.90;;;;;;;;;;5037059;28;20030;-77
2021/01/08 08:30:19;;;;;;;8.23;4.95;;;;;;;;;;5038532;28;20535;-78
2021/01/08 08:33:04;;;;;;;30.00;17.90;;;;;;;;;;5036629;28;20542;-77
2021/01/08 08:35:50;;;;;;;11.07;5.57;;;;;;;;;;5035970;28;20033;-78
2021/01/08 08:38:35;;;;;;;8.02;4.82;;;;;;;;;;5033982;28;20033;-78
2021/01/08 08:41:20;;;;;;;9.50;5.32;;;;;;;;;;5045115;28;20074;-78
2021/01/08 08:44:09;;;;;;;8.68;4.72;;;;;;;;;;5034165;28;20503;-78
2021/01/08 08:46:55;;;;;;;10.23;4.88;;;;;;;;;;5036601;28;20068;-79
2021/01/08 08:49:41;;;;;;;6.90;4.13;;;;;;;;;;5035694;28;20036;-78
2021/01/08 08:52:27;;;;;;;8.52;4.72;;;;;;;;;;5032405;28;20025;-78
2021/01/08 08:55:32;;;;;;;9.07;4.63;;;;;;;;;;5040283;28;20039;-78
2021/01/08 08:58:17;;;;;;;8.23;4.45;;;;;;;;;;5036672;28;20041;-78
2021/01/08 09:01:03;;;;;;;7.35;4.40;;;;;;;;;;5032787;28;20040;-78
2021/01/08 09:03:48;;;;;;;7.65;4.20;;;;;;;;;;5039651;28;20025;-77
2021/01/08 09:06:34;;;;;;;6.57;4.05;;;;;;;;;;5033913;28;20045;-78
2021/01/08 09:09:23;;;;;;;8.23;4.78;;;;;;;;;;5034994;28;20045;-77
2021/01/08 09:12:23;;;;;;;22.52;12.95;;;;;;;;;;5032331;28;20105;-78
2021/01/08 09:15:08;;;;;;;;;;;;;;;;;;5034372;28;20063;-78
2021/01/08 09:18:01;;;;;;;8.05;4.90;;;;;;;;;;5035617;28;19921;-79
2021/01/08 09:20:52;;;;;;;10.32;5.13;;;;;;;;;;5034277;28;20029;-78
2021/01/08 09:23:40;;;;;;;8.18;4.15;;;;;;;;;;5032947;28;20822;-78
2021/01/08 09:26:26;;;;;;;6.78;3.97;;;;;;;;;;5032704;28;20055;-78
2021/01/08 09:29:11;;;;;;;8.52;4.47;;;;;;;;;;5036981;28;20414;-78
2021/01/08 09:31:57;;;;;;;6.63;3.63;;;;;;;;;;5033568;28;20357;-78
2021/01/08 09:34:45;;;;;;;6.50;3.42;;;;;;;;;;5036586;28;20032;-78
2021/01/08 09:37:42;;;;;;;5.00;3.08;;;;;;;;;;5034592;28;20055;-77
2021/01/08 09:40:34;;;;;;;4.72;3.05;;;;;;;;;;5035955;28;20480;-77
2021/01/08 09:43:19;;;;;;;5.85;3.00;;;;;;;;;;5040268;28;20018;-77
2021/01/08 09:46:05;;;;;;;4.40;2.85;;;;;;;;;;5031221;28;20037;-77
2021/01/08 09:48:51;;;;;;;6.18;2.60;;;;;;;;;;5037166;28;20803;-76
2021/01/08 09:51:37;;;;;;;5.65;3.10;;;;;;;;;;5024622;28;20029;-77
2021/01/08 09:54:22;;;;;;;4.50;2.83;;;;;;;;;;5031962;28;20043;-77
2021/01/08 09:57:07;;;;;;;4.50;2.55;;;;;;;;;;5014237;28;541463;-76
2021/01/08 09:59:56;;;;;;;4.65;2.72;;;;;;;;;;5032500;28;20033;-77
2021/01/08 10:02:42;;;;;;;3.88;2.72;;;;;;;;;;5035280;28;20072;-79
2021/01/08 10:05:30;;;;;;;5.57;3.03;;;;;;;;;;5032212;28;20096;-77
2021/01/08 10:08:22;;;;;;;3.55;2.40;;;;;;;;;;5033205;28;20076;-78
2021/01/08 10:11:07;;;;;;;5.30;3.05;;;;;;;;;;5029394;28;20029;-77
2021/01/08 10:14:04;;;;;;;4.95;2.80;;;;;;;;;;5039063;28;20086;-78
2021/01/08 10:16:51;;;;;;;7.72;3.53;;;;;;;;;;5033052;28;20032;-78
2021/01/08 10:19:37;;;;;;;5.63;3.20;;;;;;;;;;5039548;28;20029;-76
2021/01/08 10:22:22;;;;;;;6.70;2.65;;;;;;;;;;5035823;28;20029;-77
2021/01/08 10:25:24;;;;;;;4.82;2.85;;;;;;;;;;5036850;28;20032;-77
2021/01/08 10:28:09;;;;;;;4.80;2.88;;;;;;;;;;5035116;28;20017;-77
2021/01/08 10:30:55;;;;;;;4.07;2.60;;;;;;;;;;5038650;28;20029;-77
2021/01/08 10:33:40;;;;;;;6.03;3.30;;;;;;;;;;5033651;28;20081;-77
2021/01/08 10:36:25;;;;;;;4.80;2.92;;;;;;;;;;5032055;28;20025;-77
2021/01/08 10:39:10;;;;;;;5.38;3.25;;;;;;;;;;5042094;28;20934;-77
2021/01/08 10:41:56;;;;;;;5.63;2.80;;;;;;;;;;5031240;28;20491;-78
2021/01/08 10:44:41;;;;;;;6.32;3.30;;;;;;;;;;5040759;28;20037;-77
2021/01/08 10:47:27;;;;;;;23.70;13.98;;;;;;;;;;5038275;28;20041;-77
2021/01/08 10:50:12;;;;;;;7.28;4.05;;;;;;;;;;5031486;28;20025;-77
2021/01/08 10:52:57;;;;;;;5.10;3.08;;;;;;;;;;5033011;28;20036;-78
2021/01/08 10:55:49;;;;;;;6.30;3.25;;;;;;;;;;5034666;28;20045;-78
2021/01/08 10:58:35;;;;;;;5.95;3.53;;;;;;;;;;5032914;28;20524;-79
2021/01/08 11:01:20;;;;;;;5.22;3.10;;;;;;;;;;5034831;28;20117;-77
2021/01/08 11:04:06;;;;;;;5.97;2.80;;;;;;;;;;5030863;28;20036;-77
2021/01/08 11:06:57;;;;;;;5.65;3.28;;;;;;;;;;5031664;28;20308;-77
2021/01/08 11:09:42;;;;;;;5.05;3.20;;;;;;;;;;5038964;28;20049;-76
2021/01/08 11:12:27;;;;;;;6.35;3.50;;;;;;;;;;5031981;28;20021;-76
2021/01/08 11:15:13;;;;;;;5.88;3.30;;;;;;;;;;5038363;28;20545;-76
2021/01/08 11:18:01;;;;;;;5.68;3.05;;;;;;;;;;5037997;28;20098;-76
2021/01/08 11:20:47;;;;;;;6.68;3.75;;;;;;;;;;5030243;28;20029;-76
2021/01/08 11:23:32;;;;;;;6.78;3.58;;;;;;;;;;5040150;28;20388;-76
2021/01/08 11:26:24;;;;;;;6.28;3.83;;;;;;;;;;5040813;28;20036;-76
2021/01/08 11:29:09;;;;;;;8.20;4.03;;;;;;;;;;5032284;28;20032;-76
2021/01/08 11:31:54;;;;;;;6.68;3.75;;;;;;;;;;5038758;28;20021;-77
2021/01/08 11:34:40;;;;;;;7.32;4.07;;;;;;;;;;5035072;28;20082;-77
2021/01/08 11:37:28;;;;;;;6.15;3.63;;;;;;;;;;5037512;28;20032;-78
2021/01/08 11:40:14;;;;;;;4.88;3.22;;;;;;;;;;5031910;28;20036;-77
2021/01/08 11:42:59;;;;;;;6.93;4.13;;;;;;;;;;5036933;28;20041;-76
2021/01/08 11:45:44;;;;;;;9.65;4.38;;;;;;;;;;5032267;28;20029;-77
2021/01/08 11:48:30;;;;;;;6.30;3.88;;;;;;;;;;5025480;28;20379;-76
2021/01/08 11:51:16;;;;;;;5.57;3.38;;;;;;;;;;5032586;28;20025;-76
2021/01/08 11:54:01;;;;;;;6.53;3.55;;;;;;;;;;5036947;28;20056;-76
2021/01/08 11:56:46;;;;;;;10.68;6.18;;;;;;;;;;5030315;28;20500;-76
2021/01/08 11:59:31;;;;;;;8.70;4.50;;;;;;;;;;5036006;28;20037;-77
2021/01/08 12:02:16;;;;;;;7.18;3.88;;;;;;;;;;5030542;28;20079;-76
2021/01/08 12:05:02;;;;;;;7.38;3.95;;;;;;;;;;5036994;28;20044;-77
2021/01/08 12:07:47;;;;;;;6.45;3.75;;;;;;;;;;5040748;28;20619;-76
2021/01/08 12:10:32;;;;;;;7.25;3.40;;;;;;;;;;5037338;28;20025;-77
2021/01/08 12:13:18;;;;;;;6.45;4.07;;;;;;;;;;5033441;28;20021;-78
2021/01/08 12:16:03;;;;;;;6.35;3.72;;;;;;;;;;5035132;28;20017;-77
2021/01/08 12:18:48;;;;;;;7.22;3.83;;;;;;;;;;5030759;28;20021;-76
2021/01/08 12:21:34;;;;;;;10.00;4.07;;;;;;;;;;5036992;28;20463;-76
2021/01/08 12:24:19;;;;;;;8.57;4.43;;;;;;;;;;5033735;28;20056;-77
2021/01/08 12:27:04;;;;;;;6.53;4.13;;;;;;;;;;5036870;28;20029;-76
2021/01/08 12:29:50;;;;;;;7.47;3.75;;;;;;;;;;5032724;28;20052;-79
2021/01/08 12:32:35;;;;;;;7.20;3.80;;;;;;;;;;5031065;28;20033;-80
2021/01/08 12:35:22;;;;;;;7.72;3.65;;;;;;;;;;5039003;28;20024;-78
2021/01/08 12:38:07;;;;;;;8.95;4.20;;;;;;;;;;5036297;28;20025;-77
2021/01/08 12:40:52;;;;;;;8.07;3.95;;;;;;;;;;5028086;28;20068;-77
2021/01/08 12:43:37;;;;;;;10.05;4.57;;;;;;;;;;5035117;28;20093;-78
2021/01/08 12:46:23;;;;;;;7.05;3.92;;;;;;;;;;5039328;28;20029;-77
2021/01/08 12:49:08;;;;;;;11.63;4.72;;;;;;;;;;5032944;28;20025;-77
2021/01/08 12:51:53;;;;;;;7.85;4.63;;;;;;;;;;5042631;28;20020;-77
2021/01/08 12:54:38;;;;;;;7.57;4.28;;;;;;;;;;5037876;28;20377;-78
2021/01/08 12:57:24;;;;;;;8.65;4.25;;;;;;;;;;5038828;28;20044;-77
2021/01/08 13:00:10;;;;;;;8.82;4.47;;;;;;;;;;5032731;28;20041;-76
2021/01/08 13:02:56;;;;;;;12.45;4.28;;;;;;;;;;5035604;28;20029;-78
2021/01/08 13:05:41;;;;;;;7.95;4.38;;;;;;;;;;5036286;28;20103;-82
2021/01/08 13:08:26;;;;;;;11.32;4.70;;;;;;;;;;5037104;28;20046;-80
2021/01/08 13:11:13;;;;;;;8.50;3.88;;;;;;;;;;5045158;28;20588;-78
2021/01/08 13:13:58;;;;;;;9.80;5.47;;;;;;;;;;5041280;28;20025;-78
2021/01/08 13:16:43;;;;;;;9.50;4.60;;;;;;;;;;5040593;28;20021;-78
2021/01/08 13:19:28;;;;;;;9.73;4.50;;;;;;;;;;5040101;28;20099;-77
2021/01/08 13:22:14;;;;;;;10.00;5.22;;;;;;;;;;5036586;28;20036;-77
2021/01/08 13:24:59;;;;;;;8.80;4.75;;;;;;;;;;5038395;28;20037;-78
2021/01/08 13:27:44;;;;;;;11.95;6.70;;;;;;;;;;5030992;28;20116;-77
2021/01/08 13:30:29;;;;;;;9.98;5.50;;;;;;;;;;5034663;28;20061;-78
2021/01/08 13:33:15;;;;;;;8.43;4.78;;;;;;;;;;5037819;28;20403;-75
2021/01/08 13:36:00;;;;;;;10.40;5.28;;;;;;;;;;5038578;28;20044;-76
2021/01/08 13:38:45;;;;;;;8.15;4.70;;;;;;;;;;5030028;28;20090;-78
2021/01/08 13:41:30;;;;;;;9.93;5.57;;;;;;;;;;5036321;28;20029;-77
2021/01/08 13:44:16;;;;;;;8.23;4.65;;;;;;;;;;5039011;28;20022;-77
2021/01/08 13:47:02;;;;;;;13.40;8.07;;;;;;;;;;5033418;28;20054;-81
2021/01/08 13:49:50;;;;;;;15.35;9.40;;;;;;;;;;5039328;28;20116;-81
2021/01/08 13:52:36;;;;;;;9.73;4.85;;;;;;;;;;5039663;28;20018;-78
2021/01/08 13:55:21;;;;;;;10.60;4.70;;;;;;;;;;5034412;28;20091;-78
2021/01/08 13:58:06;;;;;;;11.55;5.70;;;;;;;;;;5037070;28;20042;-78
2021/01/08 14:00:52;;;;;;;7.15;4.88;;;;;;;;;;5033126;28;20099;-78
2021/01/08 14:03:37;;;;;;;7.75;4.53;;;;;;;;;;5031723;28;20044;-81
2021/01/08 14:06:26;;;;;;;10.32;5.32;;;;;;;;;;5034219;28;20108;-79
2021/01/08 14:09:11;;;;;;;7.13;4.57;;;;;;;;;;5037422;28;20421;-78
2021/01/08 14:11:59;;;;;;;8.77;4.50;;;;;;;;;;5036090;28;20120;-77
2021/01/08 14:14:44;;;;;;;10.07;5.55;;;;;;;;;;5030106;28;20087;-77
2021/01/08 14:17:29;;;;;;;11.93;5.70;;;;;;;;;;5039750;28;20029;-76
2021/01/08 14:20:14;;;;;;;9.25;5.57;;;;;;;;;;5033618;28;20113;-79
2021/01/08 14:23:00;;;;;;;9.60;5.20;;;;;;;;;;5045557;28;20515;-77
2021/01/08 14:25:45;;;;;;;9.52;4.97;;;;;;;;;;5036400;28;21468;-77
2021/01/08 14:28:30;;;;;;;59.35;37.15;;;;;;;;;;5036069;28;20600;-77
2021/01/08 14:31:16;;;;;;;25.00;15.32;;;;;;;;;;5042423;28;20041;-77
2021/01/08 14:34:02;;;;;;;9.70;5.55;;;;;;;;;;5031255;28;20376;-77
2021/01/08 14:36:48;;;;;;;8.35;4.68;;;;;;;;;;5017998;28;20384;-77
2021/01/08 14:39:34;;;;;;;9.82;5.53;;;;;;;;;;5032376;28;20029;-77
2021/01/08 14:42:19;;;;;;;8.13;4.82;;;;;;;;;;5034784;28;20025;-77
2021/01/08 14:45:04;;;;;;;9.35;4.80;;;;;;;;;;5037756;28;20502;-78
2021/01/08 14:47:49;;;;;;;9.55;5.97;;;;;;;;;;5036565;28;20029;-78
2021/01/08 14:50:35;;;;;;;9.75;5.20;;;;;;;;;;5035739;28;20197;-77
2021/01/08 14:53:20;;;;;;;9.70;5.43;;;;;;;;;;5037501;28;20067;-77
2021/01/08 14:56:06;;;;;;;9.27;4.80;;;;;;;;;;5035040;28;20060;-77
2021/01/08 14:58:51;;;;;;;9.80;5.45;;;;;;;;;;5036033;28;20523;-78
2021/01/08 15:01:36;;;;;;;9.50;4.75;;;;;;;;;;5034886;28;20060;-77
2021/01/08 15:04:22;;;;;;;10.38;4.82;;;;;;;;;;5033794;28;20033;-78
2021/01/08 15:07:07;;;;;;;9.93;4.90;;;;;;;;;;5029402;28;20025;-77
2021/01/08 15:09:52;;;;;;;10.23;5.10;;;;;;;;;;5032876;28;20124;-85
2021/01/08 15:12:37;;;;;;;8.45;4.20;;;;;;;;;;5031328;28;20435;-82
2021/01/08 15:15:22;;;;;;;6.25;3.70;;;;;;;;;;5030885;28;20482;-82
2021/01/08 15:18:08;;;;;;;7.68;4.20;;;;;;;;;;5036733;28;20041;-81
2021/01/08 15:20:57;;;;;;;7.22;4.03;;;;;;;;;;5036190;28;20025;-80
2021/01/08 15:23:42;;;;;;;8.05;4.47;;;;;;;;;;5040828;28;20451;-80
2021/01/08 15:26:28;;;;;;;8.07;4.10;;;;;;;;;;5043133;28;20033;-80
2021/01/08 15:29:13;;;;;;;7.15;4.28;;;;;;;;;;5035044;28;20108;-80
2021/01/08 15:32:02;;;;;;;15.50;9.27;;;;;;;;;;5037614;28;20227;-80
2021/01/08 15:34:47;;;;;;;11.55;5.68;;;;;;;;;;5039883;28;20103;-81
2021/01/08 15:37:32;;;;;;;6.35;3.92;;;;;;;;;;5016702;28;20036;-81
2021/01/08 15:40:18;;;;;;;7.35;4.10;;;;;;;;;;5034087;28;20048;-81
2021/01/08 15:43:03;;;;;;;7.57;4.20;;;;;;;;;;5039812;28;20040;-80
2021/01/08 15:45:49;;;;;;;7.07;3.97;;;;;;;;;;5033433;28;20029;-81
2021/01/08 15:48:34;;;;;;;6.78;4.03;;;;;;;;;;5037159;28;20025;-80
2021/01/08 15:51:27;;;;;;;8.40;4.07;;;;;;;;;;5037332;28;20025;-80
2021/01/08 15:54:13;;;;;;;8.18;4.07;;;;;;;;;;5035737;28;20053;-81
2021/01/08 15:56:59;;;;;;;7.65;4.20;;;;;;;;;;5033217;28;20419;-80
2021/01/08 15:59:44;;;;;;;19.20;11.20;;;;;;;;;;5031742;28;20427;-81
2021/01/08 16:02:31;;;;;;;9.02;4.07;;;;;;;;;;5043353;28;20060;-81
2021/01/08 16:05:23;;;;;;;6.43;4.10;;;;;;;;;;5034907;28;20479;-80
2021/01/08 16:08:08;;;;;;;6.53;4.10;;;;;;;;;;5039252;28;20214;-81
2021/01/08 16:10:53;;;;;;;11.80;3.60;;;;;;;;;;5033795;28;20410;-80
2021/01/08 16:13:39;;;;;;;7.85;3.85;;;;;;;;;;5034601;28;20028;-80
2021/01/08 16:16:33;;;;;;;9.10;3.95;;;;;;;;;;5035467;28;20426;-81
2021/01/08 16:19:21;;;;;;;9.00;4.53;;;;;;;;;;5036007;28;20107;-81
2021/01/08 16:22:06;;;;;;;9.15;5.07;;;;;;;;;;5039459;28;20115;-82
2021/01/08 16:24:51;;;;;;;9.07;4.72;;;;;;;;;;5032849;28;20039;-81
2021/01/08 16:27:38;;;;;;;10.25;4.90;;;;;;;;;;5035244;28;20022;-82
2021/01/08 16:30:24;;;;;;;10.60;4.25;;;;;;;;;;5035866;28;20036;-83